createdAt,value
2018-09-18T00:01:40.587Z,53.80
2018-09-18T00:04:09.133Z,53.80
2018-09-18T00:06:37.703Z,53.80
2018-09-18T00:09:08.296Z,53.90
2018-09-18T00:11:36.803Z,54.10
2018-09-18T00:14:05.473Z,53.90
2018-09-18T00:16:34.151Z,54.00
2018-09-18T00:19:02.973Z,54.00
2018-09-18T00:21:31.341Z,54.40
2018-09-18T00:23:59.769Z,54.40
2018-09-18T00:26:28.132Z,54.30
2018-09-18T00:28:56.571Z,54.50
2018-09-18T00:31:24.939Z,54.50
2018-09-18T00:33:53.322Z,54.60
2018-09-18T00:36:21.711Z,54.50
2018-09-18T00:38:50.224Z,54.70
2018-09-18T00:41:18.614Z,54.90
2018-09-18T00:43:47.130Z,55.00
2018-09-18T00:46:15.560Z,55.20
2018-09-18T00:48:44.046Z,55.10
2018-09-18T00:51:12.587Z,55.10
2018-09-18T00:53:41.017Z,55.10
2018-09-18T00:56:09.485Z,55.00
2018-09-18T00:58:38.001Z,54.50
2018-09-18T01:01:06.492Z,54.10
2018-09-18T01:03:34.982Z,54.40
2018-09-18T01:06:03.434Z,54.20
2018-09-18T01:08:31.827Z,53.80
2018-09-18T01:11:00.294Z,54.00
2018-09-18T01:13:28.773Z,53.50
2018-09-18T01:15:57.142Z,53.60
2018-09-18T01:18:29.818Z,53.70
2018-09-18T01:20:58.237Z,53.70
2018-09-18T01:23:26.680Z,53.60
2018-09-18T01:25:55.049Z,53.80
2018-09-18T01:28:23.455Z,53.90
2018-09-18T01:30:51.862Z,53.90
2018-09-18T01:33:20.234Z,53.90
2018-09-18T01:35:48.616Z,54.10
2018-09-18T01:38:17.081Z,54.20
2018-09-18T01:40:45.514Z,53.90
2018-09-18T01:43:14.011Z,53.90
2018-09-18T01:45:42.422Z,54.00
2018-09-18T01:48:10.755Z,54.30
2018-09-18T01:50:39.243Z,54.30
2018-09-18T01:53:07.736Z,54.40
2018-09-18T01:55:36.235Z,54.20
2018-09-18T01:58:04.657Z,54.10
2018-09-18T02:00:33.067Z,54.00
2018-09-18T02:03:01.554Z,54.10
2018-09-18T02:05:30.034Z,54.30
2018-09-18T02:07:58.414Z,54.40
2018-09-18T02:10:27.034Z,54.40
2018-09-18T02:12:55.819Z,54.70
2018-09-18T02:15:24.252Z,54.70
2018-09-18T02:17:52.693Z,54.50
2018-09-18T02:20:21.044Z,54.60
2018-09-18T02:22:49.423Z,55.30
2018-09-18T02:25:17.917Z,54.70
2018-09-18T02:27:46.484Z,54.60
2018-09-18T02:30:14.951Z,54.80
2018-09-18T02:32:43.333Z,55.00
2018-09-18T02:35:11.766Z,54.80
2018-09-18T02:37:40.201Z,55.00
2018-09-18T02:40:08.616Z,54.90
2018-09-18T02:42:37.156Z,54.80
2018-09-18T02:45:05.616Z,54.90
2018-09-18T02:47:34.018Z,55.30
2018-09-18T02:50:02.442Z,55.30
2018-09-18T02:52:30.894Z,55.30
2018-09-18T02:54:59.321Z,55.30
2018-09-18T02:57:27.723Z,55.70
2018-09-18T02:59:56.082Z,55.70
2018-09-18T03:02:24.518Z,55.50
2018-09-18T03:04:52.885Z,55.50
2018-09-18T03:07:21.689Z,55.70
2018-09-18T03:09:50.019Z,55.70
2018-09-18T03:12:18.422Z,55.40
2018-09-18T03:14:47.632Z,55.70
2018-09-18T03:17:15.985Z,55.70
2018-09-18T03:19:44.425Z,55.80
2018-09-18T03:22:12.845Z,56.00
2018-09-18T03:24:41.251Z,55.80
2018-09-18T03:27:09.611Z,55.80
2018-09-18T03:29:38.090Z,55.90
2018-09-18T03:32:06.507Z,55.70
2018-09-18T03:34:34.891Z,55.80
2018-09-18T03:37:03.262Z,55.90
2018-09-18T03:39:31.779Z,56.20
2018-09-18T03:42:00.340Z,56.10
2018-09-18T03:44:28.758Z,56.20
2018-09-18T03:46:57.209Z,56.40
2018-09-18T03:49:25.625Z,56.40
2018-09-18T03:51:54.056Z,56.50
2018-09-18T03:54:22.451Z,56.60
2018-09-18T03:56:50.870Z,56.50
2018-09-18T03:59:19.274Z,56.70
2018-09-18T04:01:47.682Z,56.60
2018-09-18T04:04:16.070Z,56.70
2018-09-18T04:06:44.543Z,56.50
2018-09-18T04:09:13.012Z,56.40
2018-09-18T04:11:41.619Z,56.40
2018-09-18T04:14:10.414Z,56.80
2018-09-18T04:16:38.835Z,56.80
2018-09-18T04:19:07.223Z,56.80
2018-09-18T04:21:40.253Z,56.90
2018-09-18T04:24:08.684Z,57.00
2018-09-18T04:26:38.231Z,57.00
2018-09-18T04:29:07.297Z,57.00
2018-09-18T04:31:36.142Z,56.90
2018-09-18T04:34:04.720Z,56.90
2018-09-18T04:36:33.324Z,57.60
2018-09-18T04:39:02.059Z,57.10
2018-09-18T04:41:30.438Z,57.30
2018-09-18T04:43:58.846Z,57.10
2018-09-18T04:46:27.391Z,57.10
2018-09-18T04:48:55.764Z,57.10
2018-09-18T04:51:24.146Z,57.00
2018-09-18T04:53:52.612Z,56.80
2018-09-18T04:56:21.096Z,56.90
2018-09-18T04:58:49.557Z,57.00
2018-09-18T05:01:17.989Z,57.00
2018-09-18T05:03:46.455Z,57.00
2018-09-18T05:06:14.873Z,56.90
2018-09-18T05:08:43.295Z,57.00
2018-09-18T05:11:11.778Z,56.90
2018-09-18T05:13:40.196Z,57.10
2018-09-18T05:16:08.598Z,57.30
2018-09-18T05:18:37.117Z,57.50
2018-09-18T05:21:05.687Z,57.40
2018-09-18T05:23:34.167Z,57.40
2018-09-18T05:26:02.820Z,57.40
2018-09-18T05:28:31.227Z,57.50
2018-09-18T05:30:59.608Z,57.60
2018-09-18T05:33:28.064Z,57.80
2018-09-18T05:35:56.579Z,57.70
2018-09-18T05:38:24.958Z,58.00
2018-09-18T05:40:53.411Z,57.90
2018-09-18T05:43:21.797Z,58.00
2018-09-18T05:45:50.509Z,58.10
2018-09-18T05:48:19.056Z,58.40
2018-09-18T05:50:47.357Z,58.30
2018-09-18T05:53:15.712Z,58.80
2018-09-18T05:55:44.255Z,59.00
2018-09-18T05:58:12.698Z,59.20
2018-09-18T06:00:41.081Z,59.20
2018-09-18T06:03:09.601Z,59.30
2018-09-18T06:05:38.135Z,59.00
2018-09-18T06:08:07.284Z,58.80
2018-09-18T06:10:35.759Z,58.50
2018-09-18T06:13:04.198Z,58.70
2018-09-18T06:15:32.677Z,59.10
2018-09-18T06:18:01.038Z,58.30
2018-09-18T06:20:29.519Z,58.50
2018-09-18T06:22:57.871Z,58.70
2018-09-18T06:25:26.358Z,59.00
2018-09-18T06:27:54.758Z,59.20
2018-09-18T06:30:23.338Z,59.50
2018-09-18T06:32:51.834Z,59.70
2018-09-18T06:35:20.414Z,59.80
2018-09-18T06:37:48.894Z,59.90
2018-09-18T06:40:17.324Z,60.00
2018-09-18T06:42:45.852Z,60.00
2018-09-18T06:45:14.190Z,60.00
2018-09-18T06:47:42.638Z,60.00
2018-09-18T06:50:11.102Z,60.20
2018-09-18T06:52:39.458Z,60.40
2018-09-18T06:55:08.044Z,60.50
2018-09-18T06:57:36.425Z,60.40
2018-09-18T07:00:04.939Z,60.50
2018-09-18T07:02:33.337Z,60.40
2018-09-18T07:05:01.753Z,60.50
2018-09-18T07:07:30.209Z,60.60
2018-09-18T07:09:58.663Z,60.40
2018-09-18T07:12:27.095Z,60.50
2018-09-18T07:14:55.526Z,60.30
2018-09-18T07:17:24.081Z,60.40
2018-09-18T07:19:52.554Z,60.30
2018-09-18T07:22:20.961Z,60.40
2018-09-18T07:24:49.435Z,60.60
2018-09-18T07:27:17.810Z,60.40
2018-09-18T07:29:46.155Z,60.90
2018-09-18T07:32:14.546Z,60.70
2018-09-18T07:34:42.974Z,60.40
2018-09-18T07:37:11.435Z,60.60
2018-09-18T07:39:39.871Z,60.60
2018-09-18T07:42:08.265Z,60.90
2018-09-18T07:44:36.648Z,60.70
2018-09-18T07:47:05.152Z,60.40
2018-09-18T07:49:33.562Z,60.20
2018-09-18T07:52:02.030Z,60.50
2018-09-18T07:54:30.474Z,60.40
2018-09-18T07:56:58.913Z,60.40
2018-09-18T07:59:27.341Z,60.60
2018-09-18T08:01:55.730Z,60.70
2018-09-18T08:04:24.150Z,60.50
2018-09-18T08:06:52.573Z,60.10
2018-09-18T08:09:21.074Z,60.10
2018-09-18T08:11:49.474Z,60.30
2018-09-18T08:14:17.860Z,60.00
2018-09-18T08:16:46.278Z,60.20
2018-09-18T08:19:14.811Z,60.00
2018-09-18T08:21:43.135Z,60.40
2018-09-18T08:24:11.681Z,60.20
2018-09-18T08:26:40.070Z,60.20
2018-09-18T08:29:08.474Z,60.10
2018-09-18T08:31:36.972Z,60.10
2018-09-18T08:34:05.390Z,60.60
2018-09-18T08:36:33.893Z,60.30
2018-09-18T08:39:02.452Z,60.30
2018-09-18T08:41:30.838Z,60.30
2018-09-18T08:43:59.326Z,61.30
2018-09-18T08:46:27.777Z,60.30
2018-09-18T08:48:57.489Z,59.90
2018-09-18T08:51:26.320Z,60.00
2018-09-18T08:53:54.797Z,60.20
2018-09-18T08:56:23.219Z,59.90
2018-09-18T08:58:51.994Z,60.00
2018-09-18T09:01:20.330Z,59.70
2018-09-18T09:03:48.765Z,59.60
2018-09-18T09:06:17.302Z,59.60
2018-09-18T09:08:45.856Z,59.60
2018-09-18T09:11:14.145Z,60.00
2018-09-18T09:13:42.629Z,59.40
2018-09-18T09:16:11.116Z,59.20
2018-09-18T09:18:39.563Z,59.20
2018-09-18T09:21:08.112Z,59.30
2018-09-18T09:23:36.414Z,58.90
2018-09-18T09:26:04.765Z,58.90
2018-09-18T09:28:33.182Z,58.60
2018-09-18T09:31:01.616Z,58.30
2018-09-18T09:33:30.102Z,58.00
2018-09-18T09:35:58.600Z,58.00
2018-09-18T09:38:26.946Z,58.20
2018-09-18T09:40:55.366Z,58.30
2018-09-18T09:43:23.731Z,58.10
2018-09-18T09:45:52.128Z,58.10
2018-09-18T09:48:20.486Z,57.40
2018-09-18T09:50:48.900Z,57.50
2018-09-18T09:53:17.402Z,58.10
2018-09-18T09:55:45.845Z,57.50
2018-09-18T09:58:14.225Z,57.10
2018-09-18T10:00:48.055Z,56.80
2018-09-18T10:03:16.442Z,56.40
2018-09-18T10:05:44.823Z,56.80
2018-09-18T10:08:13.263Z,56.50
2018-09-18T10:10:41.869Z,55.60
2018-09-18T10:13:10.177Z,55.50
2018-09-18T10:15:38.547Z,55.90
2018-09-18T10:18:06.967Z,55.60
2018-09-18T10:20:35.295Z,55.60
2018-09-18T10:23:03.772Z,55.10
2018-09-18T10:25:32.173Z,54.30
2018-09-18T10:28:00.620Z,53.90
2018-09-18T10:30:29.020Z,53.80
2018-09-18T10:32:57.566Z,53.50
2018-09-18T10:35:26.043Z,53.10
2018-09-18T10:37:54.523Z,53.00
2018-09-18T10:40:22.928Z,52.80
2018-09-18T10:42:51.378Z,52.00
2018-09-18T10:45:19.876Z,52.10
2018-09-18T10:47:48.281Z,51.00
2018-09-18T10:50:16.774Z,50.20
2018-09-18T10:52:45.278Z,49.90
2018-09-18T10:55:13.777Z,49.80
2018-09-18T10:57:42.385Z,49.10
2018-09-18T11:00:10.666Z,48.20
2018-09-18T11:02:39.113Z,47.80
2018-09-18T11:05:07.653Z,48.00
2018-09-18T11:07:36.245Z,46.40
2018-09-18T11:10:04.992Z,46.30
2018-09-18T11:12:33.331Z,46.10
2018-09-18T11:15:01.720Z,45.50
2018-09-18T11:17:30.205Z,45.20
2018-09-18T11:19:58.872Z,45.90
2018-09-18T11:22:27.350Z,45.60
2018-09-18T11:24:55.842Z,45.70
2018-09-18T11:27:24.198Z,45.80
2018-09-18T11:29:52.656Z,46.20
2018-09-18T11:32:21.034Z,46.40
2018-09-18T11:34:49.403Z,45.40
2018-09-18T11:37:17.795Z,45.00
2018-09-18T11:39:46.324Z,44.50
2018-09-18T11:42:14.854Z,44.10
2018-09-18T11:44:43.320Z,44.40
2018-09-18T11:47:11.687Z,44.00
2018-09-18T11:49:40.034Z,43.50
2018-09-18T11:52:08.586Z,43.50
2018-09-18T11:54:36.985Z,44.10
2018-09-18T11:57:05.367Z,43.50
2018-09-18T11:59:33.843Z,43.40
2018-09-18T12:02:02.310Z,43.50
2018-09-18T12:04:30.852Z,43.20
2018-09-18T12:06:59.202Z,42.30
2018-09-18T12:09:27.612Z,42.30
2018-09-18T12:11:55.984Z,42.60
2018-09-18T12:14:24.660Z,42.80
2018-09-18T12:16:53.083Z,42.60
2018-09-18T12:19:21.489Z,42.60
2018-09-18T12:21:49.814Z,42.80
2018-09-18T12:24:18.161Z,42.80
2018-09-18T12:26:46.646Z,42.40
2018-09-18T12:29:15.207Z,41.80
2018-09-18T12:31:43.626Z,41.80
2018-09-18T12:34:12.066Z,41.40
2018-09-18T12:36:40.554Z,40.80
2018-09-18T12:39:09.901Z,40.50
2018-09-18T12:41:38.768Z,40.10
2018-09-18T12:44:07.672Z,39.90
2018-09-18T12:46:36.033Z,40.50
2018-09-18T12:49:04.706Z,40.60
2018-09-18T12:51:33.016Z,40.60
2018-09-18T12:54:01.547Z,40.90
2018-09-18T12:56:29.843Z,41.20
2018-09-18T12:58:58.361Z,41.60
2018-09-18T13:01:26.715Z,42.10
2018-09-18T13:03:55.165Z,41.90
2018-09-18T13:06:23.693Z,41.70
2018-09-18T13:08:52.139Z,41.80
2018-09-18T13:11:20.587Z,41.00
2018-09-18T13:13:49.051Z,40.90
2018-09-18T13:16:17.502Z,40.50
2018-09-18T13:18:45.946Z,40.70
2018-09-18T13:21:14.446Z,41.00
2018-09-18T13:23:42.872Z,40.90
2018-09-18T13:26:11.338Z,40.80
2018-09-18T13:28:39.922Z,41.30
2018-09-18T13:31:08.459Z,40.90
2018-09-18T13:33:36.992Z,40.90
2018-09-18T13:36:05.674Z,40.80
2018-09-18T13:38:34.208Z,40.80
2018-09-18T13:41:02.783Z,41.70
2018-09-18T13:43:31.028Z,42.40
2018-09-18T13:45:59.661Z,41.90
2018-09-18T13:48:28.156Z,41.30
2018-09-18T13:50:56.772Z,40.40
2018-09-18T13:53:25.218Z,40.60
2018-09-18T13:55:53.663Z,41.10
2018-09-18T13:58:22.169Z,41.50
2018-09-18T14:00:50.614Z,42.20
2018-09-18T14:03:19.226Z,42.60
2018-09-18T14:05:47.720Z,42.80
2018-09-18T14:08:16.198Z,43.10
2018-09-18T14:10:44.528Z,43.40
2018-09-18T14:13:13.078Z,43.70
2018-09-18T14:15:41.724Z,44.10
2018-09-18T14:18:10.199Z,45.40
2018-09-18T14:20:38.643Z,45.10
2018-09-18T14:23:07.100Z,44.50
2018-09-18T14:25:35.495Z,44.40
2018-09-18T14:28:04.015Z,44.40
2018-09-18T14:30:32.441Z,44.50
2018-09-18T14:33:00.829Z,44.70
2018-09-18T14:35:29.281Z,45.50
2018-09-18T14:37:57.762Z,45.20
2018-09-18T14:40:26.204Z,44.50
2018-09-18T14:42:54.572Z,44.30
2018-09-18T14:45:22.960Z,44.40
2018-09-18T14:47:51.507Z,44.10
2018-09-18T14:50:19.905Z,44.10
2018-09-18T14:52:48.369Z,44.30
2018-09-18T14:55:16.837Z,44.50
2018-09-18T14:57:45.243Z,44.20
2018-09-18T15:00:13.704Z,43.80
2018-09-18T15:02:42.014Z,43.90
2018-09-18T15:05:10.423Z,43.40
2018-09-18T15:07:38.873Z,43.10
2018-09-18T15:10:07.357Z,43.00
2018-09-18T15:12:35.822Z,42.70
2018-09-18T15:15:04.290Z,42.80
2018-09-18T15:17:32.660Z,42.60
2018-09-18T15:20:01.086Z,42.60
2018-09-18T15:22:29.575Z,43.00
2018-09-18T15:24:57.971Z,43.10
2018-09-18T15:27:26.441Z,44.00
2018-09-18T15:29:54.920Z,43.20
2018-09-18T15:32:23.322Z,43.60
2018-09-18T15:34:51.726Z,43.80
2018-09-18T15:37:20.156Z,44.30
2018-09-18T15:39:48.621Z,44.00
2018-09-18T15:42:17.183Z,44.20
2018-09-18T15:44:45.877Z,44.40
2018-09-18T15:47:14.258Z,44.70
2018-09-18T15:49:42.634Z,44.80
2018-09-18T15:52:11.091Z,44.80
2018-09-18T15:54:39.473Z,45.10
2018-09-18T15:57:07.984Z,45.30
2018-09-18T15:59:36.365Z,45.40
2018-09-18T16:02:04.930Z,45.60
2018-09-18T16:04:33.415Z,45.80
2018-09-18T16:07:01.784Z,46.00
2018-09-18T16:09:30.374Z,46.10
2018-09-18T16:11:58.838Z,46.40
2018-09-18T16:14:27.310Z,46.60
2018-09-18T16:16:55.779Z,46.80
2018-09-18T16:19:24.290Z,46.90
2018-09-18T16:21:52.794Z,47.00
2018-09-18T16:24:21.338Z,47.10
2018-09-18T16:26:49.756Z,48.00
2018-09-18T16:29:18.286Z,47.50
2018-09-18T16:31:46.809Z,48.20
2018-09-18T16:34:15.342Z,47.60
2018-09-18T16:36:43.926Z,47.80
2018-09-18T16:39:12.263Z,48.00
2018-09-18T16:41:41.033Z,48.00
2018-09-18T16:44:09.453Z,48.20
2018-09-18T16:46:37.969Z,48.30
2018-09-18T16:49:06.670Z,49.10
2018-09-18T16:51:35.087Z,49.00
2018-09-18T16:54:03.703Z,49.30
2018-09-18T16:56:32.191Z,50.00
2018-09-18T16:59:00.640Z,51.80
2018-09-18T17:01:29.190Z,51.60
2018-09-18T17:03:57.599Z,51.90
2018-09-18T17:06:26.087Z,52.90
2018-09-18T17:08:54.498Z,52.70
2018-09-18T17:11:22.869Z,52.70
2018-09-18T17:13:51.319Z,52.60
2018-09-18T17:16:19.854Z,52.90
2018-09-18T17:18:48.374Z,53.30
2018-09-18T17:21:16.956Z,53.60
2018-09-18T17:23:45.391Z,54.70
2018-09-18T17:26:13.769Z,55.30
2018-09-18T17:28:42.480Z,55.60
2018-09-18T17:31:10.571Z,56.10
2018-09-18T17:33:39.018Z,55.70
2018-09-18T17:36:07.626Z,55.20
2018-09-18T17:38:36.048Z,56.20
2018-09-18T17:41:04.517Z,55.80
2018-09-18T17:43:33.041Z,57.40
2018-09-18T17:46:01.475Z,57.60
2018-09-18T17:48:29.995Z,56.30
2018-09-18T17:50:58.531Z,55.90
2018-09-18T17:53:27.042Z,55.80
2018-09-18T17:55:55.477Z,55.40
2018-09-18T17:58:25.015Z,56.10
2018-09-18T18:00:53.577Z,56.30
2018-09-18T18:03:22.104Z,56.50
2018-09-18T18:05:50.542Z,56.80
2018-09-18T18:08:19.048Z,56.80
2018-09-18T18:10:47.605Z,57.20
2018-09-18T18:13:16.110Z,57.60
2018-09-18T18:15:44.556Z,57.70
2018-09-18T18:18:13.026Z,58.00
2018-09-18T18:20:41.596Z,58.00
2018-09-18T18:23:10.160Z,58.20
2018-09-18T18:25:38.836Z,56.80
2018-09-18T18:28:07.467Z,56.20
2018-09-18T18:30:35.893Z,56.20
2018-09-18T18:33:04.451Z,55.70
2018-09-18T18:35:32.988Z,55.30
2018-09-18T18:38:01.572Z,55.00
2018-09-18T18:40:30.020Z,54.60
2018-09-18T18:42:58.642Z,54.60
2018-09-18T18:45:27.173Z,54.30
2018-09-18T18:47:55.694Z,54.20
2018-09-18T18:50:24.108Z,53.80
2018-09-18T18:52:52.582Z,53.40
2018-09-18T18:55:21.110Z,53.10
2018-09-18T18:57:49.567Z,52.80
2018-09-18T19:00:18.156Z,52.60
2018-09-18T19:02:46.599Z,52.30
2018-09-18T19:05:15.025Z,52.10
2018-09-18T19:07:43.423Z,51.90
2018-09-18T19:10:11.988Z,51.80
2018-09-18T19:12:40.469Z,51.70
2018-09-18T19:15:08.995Z,51.70
2018-09-18T19:17:37.473Z,51.90
2018-09-18T19:20:06.014Z,52.00
2018-09-18T19:22:34.659Z,51.80
2018-09-18T19:25:03.199Z,51.50
2018-09-18T19:27:31.813Z,51.30
2018-09-18T19:30:00.298Z,50.70
2018-09-18T19:32:28.975Z,50.90
2018-09-18T19:34:57.404Z,50.70
2018-09-18T19:37:25.991Z,50.40
2018-09-18T19:39:54.392Z,50.40
2018-09-18T19:42:22.883Z,50.30
2018-09-18T19:44:51.410Z,50.30
2018-09-18T19:47:20.361Z,49.90
2018-09-18T19:49:48.867Z,49.50
2018-09-18T19:52:17.411Z,49.40
2018-09-18T19:54:45.739Z,49.00
2018-09-18T19:57:14.245Z,49.00
2018-09-18T19:59:42.934Z,49.00
2018-09-18T20:02:11.388Z,49.60
2018-09-18T20:04:40.043Z,50.00
2018-09-18T20:07:08.526Z,50.00
2018-09-18T20:09:37.028Z,50.20
2018-09-18T20:12:05.562Z,50.40
2018-09-18T20:14:34.109Z,50.60
2018-09-18T20:17:02.516Z,50.90
2018-09-18T20:19:31.013Z,51.00
2018-09-18T20:21:59.535Z,51.30
2018-09-18T20:24:28.016Z,51.00
2018-09-18T20:26:56.440Z,51.10
2018-09-18T20:29:24.975Z,51.40
2018-09-18T20:31:53.435Z,51.60
2018-09-18T20:34:21.890Z,51.80
2018-09-18T20:36:50.474Z,51.70
2018-09-18T20:39:18.890Z,51.80
2018-09-18T20:41:47.506Z,51.90
2018-09-18T20:44:15.979Z,52.30
2018-09-18T20:46:44.482Z,52.70
2018-09-18T20:49:12.918Z,52.70
2018-09-18T20:51:41.470Z,53.00
2018-09-18T20:54:10.263Z,53.00
2018-09-18T20:56:38.633Z,52.80
2018-09-18T20:59:07.146Z,52.60
2018-09-18T21:01:35.660Z,52.70
2018-09-18T21:04:04.166Z,53.20
2018-09-18T21:06:32.581Z,53.20
2018-09-18T21:09:01.211Z,53.40
2018-09-18T21:11:29.714Z,53.40
2018-09-18T21:13:58.222Z,53.30
2018-09-18T21:16:26.719Z,53.40
2018-09-18T21:18:55.157Z,53.60
2018-09-18T21:21:23.550Z,53.50
2018-09-18T21:23:51.944Z,53.60
2018-09-18T21:26:20.345Z,53.40
2018-09-18T21:28:49.388Z,53.20
2018-09-18T21:31:17.894Z,53.00
2018-09-18T21:33:46.444Z,52.80
2018-09-18T21:36:14.935Z,52.70
2018-09-18T21:38:43.387Z,52.80
2018-09-18T21:41:11.810Z,53.40
2018-09-18T21:43:40.279Z,52.80
2018-09-18T21:46:08.772Z,52.80
2018-09-18T21:48:37.138Z,52.80
2018-09-18T21:51:05.687Z,52.80
2018-09-18T21:53:34.055Z,52.70
2018-09-18T21:56:02.434Z,52.80
2018-09-18T21:58:30.843Z,52.90
2018-09-18T22:01:03.716Z,53.00
2018-09-18T22:03:32.334Z,52.90
2018-09-18T22:06:01.203Z,53.00
2018-09-18T22:08:29.606Z,53.00
2018-09-18T22:10:58.012Z,53.20
2018-09-18T22:13:26.466Z,53.90
2018-09-18T22:15:54.896Z,53.60
2018-09-18T22:18:23.245Z,53.80
2018-09-18T22:20:51.736Z,54.10
2018-09-18T22:23:20.182Z,54.30
2018-09-18T22:25:48.564Z,54.40
2018-09-18T22:28:16.983Z,54.50
2018-09-18T22:30:45.372Z,54.60
2018-09-18T22:33:13.890Z,54.60
2018-09-18T22:35:42.450Z,54.50
2018-09-18T22:38:11.083Z,54.40
2018-09-18T22:40:39.423Z,54.90
2018-09-18T22:43:07.977Z,54.20
2018-09-18T22:45:36.545Z,54.30
2018-09-18T22:48:05.201Z,54.30
2018-09-18T22:50:33.623Z,54.40
2018-09-18T22:53:02.025Z,54.40
2018-09-18T22:55:30.400Z,54.40
2018-09-18T22:57:58.934Z,54.60
2018-09-18T23:00:27.393Z,55.40
2018-09-18T23:02:55.821Z,54.90
2018-09-18T23:05:24.358Z,55.00
2018-09-18T23:07:52.889Z,55.20
2018-09-18T23:10:21.276Z,55.40
2018-09-18T23:12:49.775Z,56.10
2018-09-18T23:15:18.269Z,55.70
2018-09-18T23:17:46.729Z,55.70
2018-09-18T23:20:15.264Z,55.80
2018-09-18T23:22:43.913Z,55.90
2018-09-18T23:25:12.281Z,56.00
2018-09-18T23:27:40.660Z,56.00
2018-09-18T23:30:09.113Z,56.30
2018-09-18T23:32:37.554Z,56.40
2018-09-18T23:35:06.102Z,56.50
2018-09-18T23:37:34.582Z,56.70
2018-09-18T23:40:03.100Z,56.90
2018-09-18T23:42:31.678Z,57.00
2018-09-18T23:45:00.136Z,57.10
2018-09-18T23:47:28.682Z,57.00
2018-09-18T23:49:57.255Z,57.40
2018-09-18T23:52:25.801Z,57.40
2018-09-18T23:54:54.446Z,57.60
2018-09-18T23:57:22.951Z,57.70
2018-09-18T23:59:51.474Z,57.80
